sensor_id;sensor_type;location;lat;lon;timestamp;pressure;altitude;pressure_sealevel;temperature;humidity
46430;BME280;32131;53.454;-6.180;2023-02-11T00:01:48;103440.78;;;8.43;100.00
46430;BME280;32131;53.454;-6.180;2023-02-11T00:04:16;103440.97;;;8.46;100.00
46430;BME280;32131;53.454;-6.180;2023-02-11T00:06:44;103442.22;;;8.52;100.00
46430;BME280;32131;53.454;-6.180;2023-02-11T00:09:12;103445.00;;;8.55;100.00
46430;BME280;32131;53.454;-6.180;2023-02-11T00:11:41;103443.34;;;8.55;100.00
46430;BME280;32131;53.454;-6.180;2023-02-11T00:14:09;103435.69;;;8.57;100.00
46430;BME280;32131;53.454;-6.180;2023-02-11T00:16:38;103430.53;;;8.57;100.00
46430;BME280;32131;53.454;-6.180;2023-02-11T00:19:06;103424.28;;;8.53;100.00
46430;BME280;32131;53.454;-6.180;2023-02-11T00:21:35;103419.84;;;8.51;100.00
46430;BME280;32131;53.454;-6.180;2023-02-11T00:24:03;103417.94;;;8.48;100.00
46430;BME280;32131;53.454;-6.180;2023-02-11T00:26:31;103417.81;;;8.46;100.00
46430;BME280;32131;53.454;-6.180;2023-02-11T00:29:03;103416.00;;;8.45;100.00
46430;BME280;32131;53.454;-6.180;2023-02-11T00:31:32;103409.06;;;8.44;100.00
46430;BME280;32131;53.454;-6.180;2023-02-11T00:34:01;103421.94;;;8.44;100.00
46430;BME280;32131;53.454;-6.180;2023-02-11T00:36:29;103415.81;;;8.42;100.00
46430;BME280;32131;53.454;-6.180;2023-02-11T00:38:57;103420.97;;;8.42;100.00
46430;BME280;32131;53.454;-6.180;2023-02-11T00:41:26;103425.22;;;8.42;100.00
46430;BME280;32131;53.454;-6.180;2023-02-11T00:43:54;103416.50;;;8.40;100.00
46430;BME280;32131;53.454;-6.180;2023-02-11T00:46:23;103425.13;;;8.40;100.00
46430;BME280;32131;53.454;-6.180;2023-02-11T00:48:51;103425.13;;;8.40;100.00
46430;BME280;32131;53.454;-6.180;2023-02-11T00:51:23;103428.56;;;8.41;100.00
46430;BME280;32131;53.454;-6.180;2023-02-11T00:53:51;103429.28;;;8.38;100.00
46430;BME280;32131;53.454;-6.180;2023-02-11T00:56:19;103432.63;;;8.37;100.00
46430;BME280;32131;53.454;-6.180;2023-02-11T00:58:47;103437.78;;;8.37;100.00
46430;BME280;32131;53.454;-6.180;2023-02-11T01:01:15;103444.72;;;8.38;100.00
46430;BME280;32131;53.454;-6.180;2023-02-11T01:03:45;103448.06;;;8.37;100.00
46430;BME280;32131;53.454;-6.180;2023-02-11T01:06:13;103453.44;;;8.40;100.00
46430;BME280;32131;53.454;-6.180;2023-02-11T01:08:41;103453.44;;;8.40;100.00
46430;BME280;32131;53.454;-6.180;2023-02-11T01:11:11;103454.22;;;8.39;100.00
46430;BME280;32131;53.454;-6.180;2023-02-11T01:13:40;103443.84;;;8.38;100.00
46430;BME280;32131;53.454;-6.180;2023-02-11T01:16:09;103442.94;;;8.37;100.00
46430;BME280;32131;53.454;-6.180;2023-02-11T01:18:37;103430.84;;;8.36;100.00
46430;BME280;32131;53.454;-6.180;2023-02-11T01:21:07;103442.03;;;8.37;100.00
46430;BME280;32131;53.454;-6.180;2023-02-11T01:23:37;103441.25;;;8.38;100.00
46430;BME280;32131;53.454;-6.180;2023-02-11T01:26:05;103439.47;;;8.37;100.00
46430;BME280;32131;53.454;-6.180;2023-02-11T01:28:32;103428.16;;;8.34;100.00
46430;BME280;32131;53.454;-6.180;2023-02-11T01:31:01;103421.13;;;8.32;100.00
46430;BME280;32131;53.454;-6.180;2023-02-11T01:33:29;103426.28;;;8.32;100.00
46430;BME280;32131;53.454;-6.180;2023-02-11T01:35:59;103414.19;;;8.31;100.00
46430;BME280;32131;53.454;-6.180;2023-02-11T01:38:29;103406.06;;;8.25;100.00
46430;BME280;32131;53.454;-6.180;2023-02-11T01:40:58;103398.50;;;8.14;100.00
46430;BME280;32131;53.454;-6.180;2023-02-11T01:43:28;103404.81;;;8.06;100.00
46430;BME280;32131;53.454;-6.180;2023-02-11T01:46:05;103402.81;;;8.02;100.00
46430;BME280;32131;53.454;-6.180;2023-02-11T01:48:41;103407.53;;;7.96;100.00
46430;BME280;32131;53.454;-6.180;2023-02-11T01:51:11;103395.81;;;7.87;100.00
46430;BME280;32131;53.454;-6.180;2023-02-11T01:53:41;103393.16;;;7.86;100.00
46430;BME280;32131;53.454;-6.180;2023-02-11T01:56:28;103389.22;;;7.91;100.00
46430;BME280;32131;53.454;-6.180;2023-02-11T01:59:16;103382.59;;;7.95;100.00
46430;BME280;32131;53.454;-6.180;2023-02-11T02:01:45;103382.72;;;7.96;100.00
46430;BME280;32131;53.454;-6.180;2023-02-11T02:04:16;103391.09;;;7.94;100.00
46430;BME280;32131;53.454;-6.180;2023-02-11T02:06:47;103391.47;;;7.86;100.00
46430;BME280;32131;53.454;-6.180;2023-02-11T02:09:18;103389.84;;;7.75;100.00
46430;BME280;32131;53.454;-6.180;2023-02-11T02:11:48;103390.41;;;7.71;100.00
46430;BME280;32131;53.454;-6.180;2023-02-11T02:14:16;103391.63;;;7.76;100.00
46430;BME280;32131;53.454;-6.180;2023-02-11T02:16:44;103388.69;;;7.83;100.00
46430;BME280;32131;53.454;-6.180;2023-02-11T02:19:18;103380.97;;;7.83;100.00
46430;BME280;32131;53.454;-6.180;2023-02-11T02:22:04;103382.78;;;7.72;100.00
46430;BME280;32131;53.454;-6.180;2023-02-11T02:24:59;103389.66;;;7.60;100.00
46430;BME280;32131;53.454;-6.180;2023-02-11T02:27:39;103390.44;;;7.59;100.00
46430;BME280;32131;53.454;-6.180;2023-02-11T02:30:25;103393.59;;;7.55;100.00
46430;BME280;32131;53.454;-6.180;2023-02-11T02:35:52;103397.59;;;7.51;100.00
46430;BME280;32131;53.454;-6.180;2023-02-11T02:38:24;103389.56;;;7.59;100.00
46430;BME280;32131;53.454;-6.180;2023-02-11T02:40:54;103394.34;;;7.66;100.00
46430;BME280;32131;53.454;-6.180;2023-02-11T02:43:24;103396.66;;;7.75;100.00
46430;BME280;32131;53.454;-6.180;2023-02-11T02:45:52;103394.63;;;7.82;100.00
46430;BME280;32131;53.454;-6.180;2023-02-11T02:48:24;103391.47;;;7.86;100.00
46430;BME280;32131;53.454;-6.180;2023-02-11T02:50:58;103392.78;;;7.93;100.00
46430;BME280;32131;53.454;-6.180;2023-02-11T02:53:36;103376.47;;;7.93;100.00
46430;BME280;32131;53.454;-6.180;2023-02-11T02:56:09;103373.59;;;7.88;100.00
46430;BME280;32131;53.454;-6.180;2023-02-11T03:01:30;103364.38;;;7.66;100.00
46430;BME280;32131;53.454;-6.180;2023-02-11T03:04:03;103368.19;;;7.60;100.00
46430;BME280;32131;53.454;-6.180;2023-02-11T03:06:35;103360.03;;;7.53;100.00
46430;BME280;32131;53.454;-6.180;2023-02-11T03:09:10;103358.94;;;7.50;100.00
46430;BME280;32131;53.454;-6.180;2023-02-11T03:11:41;103361.50;;;7.50;100.00
46430;BME280;32131;53.454;-6.180;2023-02-11T03:14:10;103355.69;;;7.52;100.00
46430;BME280;32131;53.454;-6.180;2023-02-11T03:16:40;103354.72;;;7.50;100.00
46430;BME280;32131;53.454;-6.180;2023-02-11T03:19:11;103354.38;;;7.46;100.00
46430;BME280;32131;53.454;-6.180;2023-02-11T03:21:42;103355.03;;;7.43;100.00
46430;BME280;32131;53.454;-6.180;2023-02-11T03:24:13;103351.50;;;7.41;100.00
46430;BME280;32131;53.454;-6.180;2023-02-11T03:26:45;103353.47;;;7.45;100.00
46430;BME280;32131;53.454;-6.180;2023-02-11T03:29:16;103343.09;;;7.44;100.00
46430;BME280;32131;53.454;-6.180;2023-02-11T03:31:48;103342.69;;;7.37;100.00
46430;BME280;32131;53.454;-6.180;2023-02-11T03:34:20;103343.31;;;7.35;100.00
46430;BME280;32131;53.454;-6.180;2023-02-11T03:36:54;103340.66;;;7.33;100.00
46430;BME280;32131;53.454;-6.180;2023-02-11T03:39:28;103335.31;;;7.30;100.00
46430;BME280;32131;53.454;-6.180;2023-02-11T03:41:57;103333.03;;;7.35;100.00
46430;BME280;32131;53.454;-6.180;2023-02-11T03:44:27;103330.69;;;7.38;100.00
46430;BME280;32131;53.454;-6.180;2023-02-11T03:46:57;103329.91;;;7.39;100.00
46430;BME280;32131;53.454;-6.180;2023-02-11T03:49:26;103335.94;;;7.39;100.00
46430;BME280;32131;53.454;-6.180;2023-02-11T03:51:56;103343.78;;;7.41;100.00
46430;BME280;32131;53.454;-6.180;2023-02-11T03:54:28;103345.66;;;7.44;100.00
46430;BME280;32131;53.454;-6.180;2023-02-11T03:56:57;103351.13;;;7.48;100.00
46430;BME280;32131;53.454;-6.180;2023-02-11T03:59:25;103354.22;;;7.56;100.00
46430;BME280;32131;53.454;-6.180;2023-02-11T04:01:53;103351.00;;;7.59;100.00
46430;BME280;32131;53.454;-6.180;2023-02-11T04:04:23;103351.97;;;7.61;100.00
46430;BME280;32131;53.454;-6.180;2023-02-11T04:06:52;103352.19;;;7.64;100.00
46430;BME280;32131;53.454;-6.180;2023-02-11T04:09:21;103356.78;;;7.68;100.00
46430;BME280;32131;53.454;-6.180;2023-02-11T04:11:49;103357.97;;;7.73;100.00
46430;BME280;32131;53.454;-6.180;2023-02-11T04:14:18;103363.34;;;7.76;100.00
46430;BME280;32131;53.454;-6.180;2023-02-11T04:16:45;103366.00;;;7.78;100.00
46430;BME280;32131;53.454;-6.180;2023-02-11T04:19:13;103368.16;;;7.71;100.00
46430;BME280;32131;53.454;-6.180;2023-02-11T04:21:44;103356.91;;;7.58;100.00
46430;BME280;32131;53.454;-6.180;2023-02-11T04:24:11;103356.47;;;7.51;100.00
46430;BME280;32131;53.454;-6.180;2023-02-11T04:26:41;103369.03;;;7.47;100.00
46430;BME280;32131;53.454;-6.180;2023-02-11T04:29:08;103363.75;;;7.45;100.00
46430;BME280;32131;53.454;-6.180;2023-02-11T04:31:38;103361.19;;;7.45;100.00
46430;BME280;32131;53.454;-6.180;2023-02-11T04:34:06;103365.44;;;7.45;100.00
46430;BME280;32131;53.454;-6.180;2023-02-11T04:36:34;103361.19;;;7.45;100.00
46430;BME280;32131;53.454;-6.180;2023-02-11T04:39:02;103363.88;;;7.47;100.00
46430;BME280;32131;53.454;-6.180;2023-02-11T04:41:30;103353.81;;;7.50;100.00
46430;BME280;32131;53.454;-6.180;2023-02-11T04:44:03;103360.03;;;7.53;100.00
46430;BME280;32131;53.454;-6.180;2023-02-11T04:46:31;103356.69;;;7.54;100.00
46430;BME280;32131;53.454;-6.180;2023-02-11T04:49:00;103361.59;;;7.51;100.00
46430;BME280;32131;53.454;-6.180;2023-02-11T04:51:29;103369.91;;;7.47;100.00
46430;BME280;32131;53.454;-6.180;2023-02-11T04:53:57;103363.75;;;7.45;100.00
46430;BME280;32131;53.454;-6.180;2023-02-11T04:56:25;103377.53;;;7.46;100.00
46430;BME280;32131;53.454;-6.180;2023-02-11T04:58:53;103378.63;;;7.49;100.00
46430;BME280;32131;53.454;-6.180;2023-02-11T05:01:23;103379.75;;;7.53;100.00
46430;BME280;32131;53.454;-6.180;2023-02-11T05:03:51;103380.06;;;7.58;100.00
46430;BME280;32131;53.454;-6.180;2023-02-11T05:06:19;103384.63;;;7.62;100.00
46430;BME280;32131;53.454;-6.180;2023-02-11T05:08:53;103388.28;;;7.65;100.00
46430;BME280;32131;53.454;-6.180;2023-02-11T05:11:25;103379.94;;;7.68;100.00
46430;BME280;32131;53.454;-6.180;2023-02-11T05:13:53;103384.38;;;7.70;100.00
46430;BME280;32131;53.454;-6.180;2023-02-11T05:16:22;103377.63;;;7.72;100.00
46430;BME280;32131;53.454;-6.180;2023-02-11T05:18:50;103382.91;;;7.74;100.00
46430;BME280;32131;53.454;-6.180;2023-02-11T05:21:20;103377.78;;;7.74;100.00
46430;BME280;32131;53.454;-6.180;2023-02-11T05:23:48;103381.13;;;7.73;100.00
46430;BME280;32131;53.454;-6.180;2023-02-11T05:26:16;103380.34;;;7.74;100.00
46430;BME280;32131;53.454;-6.180;2023-02-11T05:28:45;103378.56;;;7.73;100.00
46430;BME280;32131;53.454;-6.180;2023-02-11T05:31:13;103379.44;;;7.74;100.00
46430;BME280;32131;53.454;-6.180;2023-02-11T05:33:45;103385.50;;;7.74;100.00
46430;BME280;32131;53.454;-6.180;2023-02-11T05:36:13;103381.22;;;7.75;100.00
46430;BME280;32131;53.454;-6.180;2023-02-11T05:38:42;103381.34;;;7.76;100.00
46430;BME280;32131;53.454;-6.180;2023-02-11T05:41:10;103384.69;;;7.75;100.00
46430;BME280;32131;53.454;-6.180;2023-02-11T05:43:40;103380.53;;;7.77;100.00
46430;BME280;32131;53.454;-6.180;2023-02-11T05:46:08;103384.13;;;7.79;100.00
46430;BME280;32131;53.454;-6.180;2023-02-11T05:48:36;103384.13;;;7.79;100.00
46430;BME280;32131;53.454;-6.180;2023-02-11T05:51:06;103383.34;;;7.80;100.00
46430;BME280;32131;53.454;-6.180;2023-02-11T05:53:34;103389.34;;;7.81;100.00
46430;BME280;32131;53.454;-6.180;2023-02-11T05:56:02;103384.34;;;7.82;100.00
46430;BME280;32131;53.454;-6.180;2023-02-11T05:58:31;103387.91;;;7.84;100.00
46430;BME280;32131;53.454;-6.180;2023-02-11T06:00:59;103388.09;;;7.87;100.00
46430;BME280;32131;53.454;-6.180;2023-02-11T06:03:27;103383.06;;;7.89;100.00
46430;BME280;32131;53.454;-6.180;2023-02-11T06:05:56;103379.69;;;7.90;100.00
46430;BME280;32131;53.454;-6.180;2023-02-11T06:08:26;103376.25;;;7.90;100.00
46430;BME280;32131;53.454;-6.180;2023-02-11T06:10:56;103382.28;;;7.90;100.00
46430;BME280;32131;53.454;-6.180;2023-02-11T06:13:24;103383.19;;;7.91;100.00
46430;BME280;32131;53.454;-6.180;2023-02-11T06:15:55;103378.91;;;7.91;100.00
46430;BME280;32131;53.454;-6.180;2023-02-11T06:18:26;103389.34;;;7.93;100.00
46430;BME280;32131;53.454;-6.180;2023-02-11T06:20:54;103380.63;;;7.91;100.00
46430;BME280;32131;53.454;-6.180;2023-02-11T06:23:22;103368.63;;;7.91;100.00
46430;BME280;32131;53.454;-6.180;2023-02-11T06:25:51;103369.53;;;7.92;100.00
46430;BME280;32131;53.454;-6.180;2023-02-11T06:28:19;103372.19;;;7.93;100.00
46430;BME280;32131;53.454;-6.180;2023-02-11T06:30:47;103373.91;;;7.93;100.00
46430;BME280;32131;53.454;-6.180;2023-02-11T06:33:15;103379.03;;;7.93;100.00
46430;BME280;32131;53.454;-6.180;2023-02-11T06:35:43;103376.47;;;7.93;100.00
46430;BME280;32131;53.454;-6.180;2023-02-11T06:38:10;103382.59;;;7.95;100.00
46430;BME280;32131;53.454;-6.180;2023-02-11T06:40:38;103385.28;;;7.96;100.00
46430;BME280;32131;53.454;-6.180;2023-02-11T06:43:08;103380.94;;;7.95;100.00
46430;BME280;32131;53.454;-6.180;2023-02-11T06:45:37;103377.56;;;7.96;100.00
46430;BME280;32131;53.454;-6.180;2023-02-11T06:48:06;103385.38;;;7.98;100.00
46430;BME280;32131;53.454;-6.180;2023-02-11T06:50:33;103380.25;;;7.98;100.00
46430;BME280;32131;53.454;-6.180;2023-02-11T06:53:01;103381.13;;;7.98;100.00
46430;BME280;32131;53.454;-6.180;2023-02-11T06:55:30;103370.72;;;7.97;100.00
46430;BME280;32131;53.454;-6.180;2023-02-11T06:57:58;103372.53;;;7.98;100.00
46430;BME280;32131;53.454;-6.180;2023-02-11T07:00:27;103371.66;;;7.97;100.00
46430;BME280;32131;53.454;-6.180;2023-02-11T07:02:55;103367.38;;;7.98;100.00
46430;BME280;32131;53.454;-6.180;2023-02-11T07:05:24;103369.94;;;7.98;100.00
46430;BME280;32131;53.454;-6.180;2023-02-11T07:07:52;103371.72;;;7.99;100.00
46430;BME280;32131;53.454;-6.180;2023-02-11T07:10:20;103378.69;;;8.00;100.00
46430;BME280;32131;53.454;-6.180;2023-02-11T07:12:48;103381.25;;;8.00;100.00
46430;BME280;32131;53.454;-6.180;2023-02-11T07:15:16;103387.28;;;8.00;100.00
46430;BME280;32131;53.454;-6.180;2023-02-11T07:17:45;103385.59;;;8.01;100.00
46430;BME280;32131;53.454;-6.180;2023-02-11T07:20:13;103387.28;;;8.00;100.00
46430;BME280;32131;53.454;-6.180;2023-02-11T07:22:41;103390.84;;;8.02;100.00
46430;BME280;32131;53.454;-6.180;2023-02-11T07:25:08;103394.44;;;8.05;100.00
46430;BME280;32131;53.454;-6.180;2023-02-11T07:27:36;103393.50;;;8.04;100.00
46430;BME280;32131;53.454;-6.180;2023-02-11T07:30:09;103394.53;;;8.06;100.00
46430;BME280;32131;53.454;-6.180;2023-02-11T07:32:38;103396.31;;;8.07;100.00
46430;BME280;32131;53.454;-6.180;2023-02-11T07:35:12;103398.09;;;8.08;100.00
46430;BME280;32131;53.454;-6.180;2023-02-11T07:37:42;103395.53;;;8.08;100.00
46430;BME280;32131;53.454;-6.180;2023-02-11T07:40:13;103405.91;;;8.10;100.00
46430;BME280;32131;53.454;-6.180;2023-02-11T07:42:41;103411.94;;;8.10;99.98
46430;BME280;32131;53.454;-6.180;2023-02-11T07:45:09;103414.63;;;8.12;99.92
46430;BME280;32131;53.454;-6.180;2023-02-11T07:47:40;103413.72;;;8.11;100.00
46430;BME280;32131;53.454;-6.180;2023-02-11T07:50:10;103411.94;;;8.10;99.62
46430;BME280;32131;53.454;-6.180;2023-02-11T07:52:38;103417.09;;;8.10;99.46
46430;BME280;32131;53.454;-6.180;2023-02-11T07:55:06;103415.44;;;8.11;98.93
46430;BME280;32131;53.454;-6.180;2023-02-11T07:57:35;103416.44;;;8.13;98.67
46430;BME280;32131;53.454;-6.180;2023-02-11T08:00:04;103417.31;;;8.13;98.29
46430;BME280;32131;53.454;-6.180;2023-02-11T08:02:33;103414.81;;;8.15;98.23
46430;BME280;32131;53.454;-6.180;2023-02-11T08:05:01;103408.03;;;8.15;97.92
46430;BME280;32131;53.454;-6.180;2023-02-11T08:07:30;103410.69;;;8.17;97.65
46430;BME280;32131;53.454;-6.180;2023-02-11T08:09:58;103415.94;;;8.18;97.38
46430;BME280;32131;53.454;-6.180;2023-02-11T08:12:26;103415.28;;;8.21;96.99
46430;BME280;32131;53.454;-6.180;2023-02-11T08:14:54;103423.97;;;8.23;96.89
46430;BME280;32131;53.454;-6.180;2023-02-11T08:17:22;103413.00;;;8.26;96.52
46430;BME280;32131;53.454;-6.180;2023-02-11T08:19:50;103425.19;;;8.28;96.53
46430;BME280;32131;53.454;-6.180;2023-02-11T08:22:18;103420.34;;;8.33;96.12
46430;BME280;32131;53.454;-6.180;2023-02-11T08:24:48;103423.94;;;8.35;96.05
46430;BME280;32131;53.454;-6.180;2023-02-11T08:27:17;103429.28;;;8.38;95.23
46430;BME280;32131;53.454;-6.180;2023-02-11T08:29:45;103432.84;;;8.40;95.22
46430;BME280;32131;53.454;-6.180;2023-02-11T08:32:13;103426.31;;;8.45;95.07
46430;BME280;32131;53.454;-6.180;2023-02-11T08:34:42;103431.81;;;8.50;94.71
46430;BME280;32131;53.454;-6.180;2023-02-11T08:37:11;103439.84;;;8.55;94.60
46430;BME280;32131;53.454;-6.180;2023-02-11T08:39:39;103441.06;;;8.60;94.28
46430;BME280;32131;53.454;-6.180;2023-02-11T08:42:11;103442.16;;;8.63;94.01
46430;BME280;32131;53.454;-6.180;2023-02-11T08:44:41;103442.34;;;8.67;93.79
46430;BME280;32131;53.454;-6.180;2023-02-11T08:47:09;103444.22;;;8.69;93.66
46430;BME280;32131;53.454;-6.180;2023-02-11T08:49:37;103447.09;;;8.74;93.27
46430;BME280;32131;53.454;-6.180;2023-02-11T08:52:08;103445.63;;;8.77;93.12
46430;BME280;32131;53.454;-6.180;2023-02-11T08:54:37;103455.44;;;8.83;92.91
46430;BME280;32131;53.454;-6.180;2023-02-11T08:57:10;103457.44;;;8.87;92.85
46430;BME280;32131;53.454;-6.180;2023-02-11T08:59:44;103464.69;;;8.93;92.51
46430;BME280;32131;53.454;-6.180;2023-02-11T09:02:14;103469.25;;;8.97;92.33
46430;BME280;32131;53.454;-6.180;2023-02-11T09:04:42;103467.88;;;9.02;91.92
46430;BME280;32131;53.454;-6.180;2023-02-11T09:07:10;103464.91;;;9.09;90.07
46430;BME280;32131;53.454;-6.180;2023-02-11T09:09:40;103465.50;;;9.19;90.40
46430;BME280;32131;53.454;-6.180;2023-02-11T09:12:08;103475.50;;;9.27;89.38
46430;BME280;32131;53.454;-6.180;2023-02-11T09:14:36;103473.44;;;9.35;88.28
46430;BME280;32131;53.454;-6.180;2023-02-11T09:17:06;103480.75;;;9.42;87.95
46430;BME280;32131;53.454;-6.180;2023-02-11T09:19:37;103482.72;;;9.47;88.08
46430;BME280;32131;53.454;-6.180;2023-02-11T09:22:13;103482.94;;;9.50;87.92
46430;BME280;32131;53.454;-6.180;2023-02-11T09:24:41;103481.34;;;9.52;87.77
46430;BME280;32131;53.454;-6.180;2023-02-11T09:27:09;103483.03;;;9.51;87.04
46430;BME280;32131;53.454;-6.180;2023-02-11T09:29:37;103480.44;;;9.51;87.18
46430;BME280;32131;53.454;-6.180;2023-02-11T09:32:06;103481.22;;;9.50;86.72
46430;BME280;32131;53.454;-6.180;2023-02-11T09:34:35;103478.56;;;9.49;86.77
46430;BME280;32131;53.454;-6.180;2023-02-11T09:37:03;103483.53;;;9.46;86.47
46430;BME280;32131;53.454;-6.180;2023-02-11T09:39:31;103488.59;;;9.44;86.46
46430;BME280;32131;53.454;-6.180;2023-02-11T09:44:53;103491.25;;;9.46;86.34
46430;BME280;32131;53.454;-6.180;2023-02-11T09:58:22;103508.00;;;9.66;86.09
46430;BME280;32131;53.454;-6.180;2023-02-11T10:02:30;103510.09;;;9.71;86.08
46430;BME280;32131;53.454;-6.180;2023-02-11T10:09:05;103513.34;;;9.82;85.79
46430;BME280;32131;53.454;-6.180;2023-02-11T10:13:59;103512.81;;;9.88;85.39
46430;BME280;32131;53.454;-6.180;2023-02-11T10:39:08;103527.25;;;10.26;82.71
46430;BME280;32131;53.454;-6.180;2023-02-11T11:32:44;103513.81;;;11.67;75.67
46430;BME280;32131;53.454;-6.180;2023-02-11T12:46:52;103479.88;;;13.12;60.76
46430;BME280;32131;53.454;-6.180;2023-02-11T12:49:29;103470.16;;;13.08;60.80
46430;BME280;32131;53.454;-6.180;2023-02-11T12:52:11;103475.03;;;13.02;59.95
46430;BME280;32131;53.454;-6.180;2023-02-11T12:54:46;103467.25;;;13.02;59.42
46430;BME280;32131;53.454;-6.180;2023-02-11T12:57:20;103473.25;;;13.01;58.81
46430;BME280;32131;53.454;-6.180;2023-02-11T12:59:50;103478.28;;;12.98;58.46
46430;BME280;32131;53.454;-6.180;2023-02-11T13:02:28;103476.94;;;12.88;57.07
46430;BME280;32131;53.454;-6.180;2023-02-11T13:05:00;103467.47;;;12.88;57.21
46430;BME280;32131;53.454;-6.180;2023-02-11T13:07:32;103462.22;;;12.87;57.01
46430;BME280;32131;53.454;-6.180;2023-02-11T13:10:02;103460.81;;;12.94;56.91
46430;BME280;32131;53.454;-6.180;2023-02-11T13:12:33;103461.78;;;12.96;56.16
46430;BME280;32131;53.454;-6.180;2023-02-11T13:41:16;103473.72;;;12.92;56.55
46430;BME280;32131;53.454;-6.180;2023-02-11T13:43:44;103478.00;;;12.92;56.90
46430;BME280;32131;53.454;-6.180;2023-02-11T13:46:23;103474.19;;;12.85;56.18
46430;BME280;32131;53.454;-6.180;2023-02-11T13:48:53;103473.66;;;12.74;56.15
46430;BME280;32131;53.454;-6.180;2023-02-11T13:51:33;103475.66;;;12.62;55.22
46430;BME280;32131;53.454;-6.180;2023-02-11T13:54:01;103471.84;;;12.55;55.56
46430;BME280;32131;53.454;-6.180;2023-02-11T13:56:31;103457.78;;;12.50;55.61
46430;BME280;32131;53.454;-6.180;2023-02-11T13:59:00;103466.13;;;12.44;55.36
46430;BME280;32131;53.454;-6.180;2023-02-11T14:01:37;103461.28;;;12.34;54.70
46430;BME280;32131;53.454;-6.180;2023-02-11T14:16:15;103443.59;;;12.60;55.84
46430;BME280;32131;53.454;-6.180;2023-02-11T14:19:02;103433.75;;;12.70;55.46
46430;BME280;32131;53.454;-6.180;2023-02-11T14:21:33;103424.06;;;12.66;55.51
46430;BME280;32131;53.454;-6.180;2023-02-11T14:27:08;103434.25;;;12.81;55.26
46430;BME280;32131;53.454;-6.180;2023-02-11T14:29:38;103424.50;;;12.94;55.44
46430;BME280;32131;53.454;-6.180;2023-02-11T14:32:14;103434.66;;;13.07;55.74
46430;BME280;32131;53.454;-6.180;2023-02-11T14:34:49;103424.38;;;13.09;54.36
46430;BME280;32131;53.454;-6.180;2023-02-11T14:37:24;103412.97;;;13.05;54.52
46430;BME280;32131;53.454;-6.180;2023-02-11T14:39:55;103411.06;;;13.02;54.25
46430;BME280;32131;53.454;-6.180;2023-02-11T14:42:25;103413.69;;;13.02;54.56
46430;BME280;32131;53.454;-6.180;2023-02-11T14:45:02;103417.06;;;13.01;54.67
46430;BME280;32131;53.454;-6.180;2023-02-11T14:47:34;103411.75;;;12.98;54.13
46430;BME280;32131;53.454;-6.180;2023-02-11T14:50:05;103417.53;;;12.93;54.27
46430;BME280;32131;53.454;-6.180;2023-02-11T14:52:35;103421.84;;;12.92;54.54
46430;BME280;32131;53.454;-6.180;2023-02-11T14:55:05;103423.38;;;12.88;54.68
46430;BME280;32131;53.454;-6.180;2023-02-11T14:57:40;103417.16;;;12.85;55.14
46430;BME280;32131;53.454;-6.180;2023-02-11T15:00:15;103418.72;;;12.81;54.94
46430;BME280;32131;53.454;-6.180;2023-02-11T15:02:47;103421.06;;;12.77;55.00
46430;BME280;32131;53.454;-6.180;2023-02-11T15:05:16;103425.22;;;12.73;55.36
46430;BME280;32131;53.454;-6.180;2023-02-11T15:07:45;103421.53;;;12.68;55.69
46430;BME280;32131;53.454;-6.180;2023-02-11T15:10:15;103421.22;;;12.62;55.86
46430;BME280;32131;53.454;-6.180;2023-02-11T15:12:44;103421.81;;;12.56;56.21
46430;BME280;32131;53.454;-6.180;2023-02-11T15:15:14;103417.72;;;12.43;55.74
46430;BME280;32131;53.454;-6.180;2023-02-11T15:17:43;103418.34;;;12.39;56.11
46430;BME280;32131;53.454;-6.180;2023-02-11T15:20:19;103412.47;;;12.41;56.63
46430;BME280;32131;53.454;-6.180;2023-02-11T15:22:49;103421.69;;;12.36;56.45
46430;BME280;32131;53.454;-6.180;2023-02-11T15:25:19;103420.56;;;12.31;56.47
46430;BME280;32131;53.454;-6.180;2023-02-11T15:27:49;103422.75;;;12.23;56.53
46430;BME280;32131;53.454;-6.180;2023-02-11T15:30:25;103417.09;;;12.14;56.58
46430;BME280;32131;53.454;-6.180;2023-02-11T15:32:54;103417.75;;;12.10;57.12
46430;BME280;32131;53.454;-6.180;2023-02-11T15:35:26;103430.53;;;12.07;57.47
46430;BME280;32131;53.454;-6.180;2023-02-11T15:37:55;103430.16;;;11.99;57.61
46430;BME280;32131;53.454;-6.180;2023-02-11T15:40:24;103426.31;;;11.92;57.83
46430;BME280;32131;53.454;-6.180;2023-02-11T15:42:55;103422.50;;;11.86;58.04
46430;BME280;32131;53.454;-6.180;2023-02-11T15:45:25;103423.91;;;11.79;58.25
46430;BME280;32131;53.454;-6.180;2023-02-11T15:47:57;103428.72;;;11.73;58.50
46430;BME280;32131;53.454;-6.180;2023-02-11T15:50:28;103428.41;;;11.67;58.61
46430;BME280;32131;53.454;-6.180;2023-02-11T15:53:02;103430.00;;;11.64;58.87
46430;BME280;32131;53.454;-6.180;2023-02-11T15:55:31;103429.69;;;11.58;58.85
46430;BME280;32131;53.454;-6.180;2023-02-11T15:57:59;103441.66;;;11.56;59.06
46430;BME280;32131;53.454;-6.180;2023-02-11T16:00:30;103438.81;;;11.52;59.23
46430;BME280;32131;53.454;-6.180;2023-02-11T16:03:00;103432.44;;;11.45;59.68
46430;BME280;32131;53.454;-6.180;2023-02-11T16:05:30;103431.72;;;11.32;60.46
46430;BME280;32131;53.454;-6.180;2023-02-11T16:07:59;103440.44;;;11.18;61.21
46430;BME280;32131;53.454;-6.180;2023-02-11T16:10:32;103433.03;;;11.09;61.83
46430;BME280;32131;53.454;-6.180;2023-02-11T16:13:02;103436.19;;;11.04;62.61
46430;BME280;32131;53.454;-6.180;2023-02-11T16:15:44;103427.25;;;10.98;62.99
46430;BME280;32131;53.454;-6.180;2023-02-11T16:21:11;103434.34;;;10.86;63.95
46430;BME280;32131;53.454;-6.180;2023-02-11T16:23:42;103432.34;;;10.82;64.17
46430;BME280;32131;53.454;-6.180;2023-02-11T16:26:21;103436.53;;;10.80;64.40
46430;BME280;32131;53.454;-6.180;2023-02-11T16:29:00;103438.06;;;10.76;64.63
46430;BME280;32131;53.454;-6.180;2023-02-11T16:31:33;103441.28;;;10.72;64.97
46430;BME280;32131;53.454;-6.180;2023-02-11T16:34:04;103441.19;;;10.70;65.24